Time;durP1;ratioP1;P1;durP2;ratioP2;P2;SDS_P1;SDS_P2;PMS_P1;PMS_P2;Temp;Humidity;BMP_temperature;BMP_pressure;BME280_temperature;BME280_humidity;BME280_pressure;Samples;Min_cycle;Max_cycle;Signal;HPM_P1;HPM_P2
2022/06/20 00:04:22;;;;;;;1.40;0.80;;;19.10;74.80;;;17.98;60.86;99838.22;9828675;29;97589;-88
2022/06/20 00:09:25;;;;;;;1.40;0.82;;;19.00;74.70;;;17.85;61.45;99831.13;9844770;29;96578;-87
2022/06/20 00:14:28;;;;;;;1.05;0.80;;;19.00;75.70;;;17.80;61.48;99825.59;9849228;29;96722;-87
2022/06/20 00:19:32;;;;;;;1.60;1.02;;;18.90;75.80;;;17.71;62.08;99826.13;9807616;29;97398;-87
2022/06/20 00:24:35;;;;;;;1.27;0.90;;;18.80;76.90;;;17.61;62.29;99824.75;9838317;29;96557;-87
2022/06/20 00:29:41;;;;;;;1.17;0.80;;;18.70;76.60;;;17.54;62.49;99817.81;9827566;29;96620;-87
2022/06/20 00:34:44;;;;;;;1.38;0.98;;;18.60;77.20;;;17.46;62.28;99818.94;9832047;29;97843;-86
2022/06/20 00:39:50;;;;;;;2.25;1.00;;;18.50;76.90;;;17.44;62.68;99814.81;9845625;29;96664;-87
2022/06/20 00:45:01;;;;;;;1.10;0.80;;;18.50;77.50;;;17.48;62.58;99810.66;9806714;29;96590;-87
2022/06/20 00:50:23;;;;;;;1.88;1.10;;;18.50;77.20;;;17.49;63.10;99807.72;9845932;29;97405;-86
2022/06/20 00:55:50;;;;;;;1.35;0.82;;;18.60;78.40;;;17.50;62.84;99801.31;9863305;29;96557;-86
2022/06/20 01:00:54;;;;;;;1.48;1.00;;;18.50;77.40;;;17.44;62.69;99793.31;9832544;29;96917;-87
2022/06/20 01:06:13;;;;;;;4.00;1.75;;;18.50;77.90;;;17.39;63.13;99789.47;9830604;29;96765;-87
2022/06/20 01:11:50;;;;;;;1.13;0.77;;;18.50;78.50;;;17.29;63.74;99783.75;9833253;29;97388;-87
2022/06/20 01:16:57;;;;;;;1.35;0.98;;;18.40;80.00;;;17.22;63.80;99768.78;9834365;29;99059;-86
2022/06/20 01:22:17;;;;;;;1.20;0.90;;;18.30;79.00;;;17.13;64.22;99770.91;9846995;29;96803;-87
2022/06/20 01:27:37;;;;;;;2.55;1.08;;;18.20;79.30;;;17.06;64.60;99765.59;9848988;29;96683;-89
2022/06/20 01:32:42;;;;;;;1.05;0.80;;;18.10;80.10;;;16.97;65.29;99766.09;9837000;29;96561;-87
2022/06/20 01:37:46;;;;;;;2.70;1.10;;;18.10;80.90;;;16.87;65.47;99755.84;9843096;29;96591;-87
2022/06/20 01:42:49;;;;;;;1.23;0.93;;;18.00;81.00;;;16.80;66.20;99763.16;9821069;29;97707;-87
2022/06/20 01:47:53;;;;;;;1.70;1.05;;;17.90;82.40;;;16.74;66.23;99764.84;9836564;29;97464;-87
2022/06/20 01:52:56;;;;;;;3.55;0.93;;;17.90;82.80;;;16.58;66.85;99765.34;9840351;29;96579;-87
2022/06/20 01:58:35;;;;;;;1.73;1.08;;;17.70;83.90;;;16.48;67.29;99754.25;9844009;29;96850;-87
2022/06/20 02:03:41;;;;;;;2.38;1.20;;;17.60;83.60;;;16.40;68.13;99741.13;9854541;29;96657;-87
2022/06/20 02:08:54;;;;;;;1.88;1.20;;;17.50;86.10;;;16.36;68.23;99731.84;9846860;29;96620;-87
2022/06/20 02:14:17;;;;;;;2.38;1.33;;;17.50;86.50;;;16.26;68.88;99738.53;9810655;29;96660;-86
2022/06/20 02:19:29;;;;;;;2.17;1.25;;;17.40;88.60;;;16.19;68.67;99735.09;9844495;29;96655;-86
2022/06/20 02:24:39;;;;;;;9.45;4.47;;;17.30;87.60;;;16.17;68.57;99734.47;9837495;29;96775;-89
2022/06/20 02:29:42;;;;;;;3.57;1.77;;;17.30;88.40;;;16.11;69.36;99731.81;9821047;29;96683;-89
2022/06/20 02:34:45;;;;;;;1.83;1.15;;;17.20;90.00;;;16.05;69.71;99725.47;9839307;29;96642;-89
2022/06/20 02:39:55;;;;;;;3.03;1.15;;;17.10;90.60;;;15.99;70.00;99735.19;9825832;29;96564;-88
2022/06/20 02:44:59;;;;;;;2.65;1.10;;;17.10;90.80;;;15.92;70.62;99730.91;9839024;29;98327;-89
2022/06/20 02:50:03;;;;;;;1.75;0.93;;;17.00;91.60;;;15.82;70.51;99738.56;9819265;29;98704;-89
2022/06/20 02:55:07;;;;;;;2.08;1.27;;;16.90;92.10;;;15.75;70.81;99727.88;9808108;29;97516;-88
2022/06/20 03:00:21;;;;;;;2.15;1.27;;;16.80;92.10;;;15.77;70.81;99717.75;9824847;29;96870;-88
2022/06/20 03:05:24;;;;;;;1.70;1.20;;;16.80;92.70;;;15.76;71.55;99722.28;9817965;29;96627;-89
2022/06/20 03:10:44;;;;;;;1.67;1.30;;;16.80;93.70;;;15.79;71.42;99711.16;9820140;29;96722;-89
2022/06/20 03:15:49;;;;;;;5.18;1.65;;;16.90;93.90;;;15.84;71.75;99707.03;9833255;29;96695;-88
2022/06/20 03:20:52;;;;;;;1.80;1.27;;;16.90;94.00;;;15.91;71.42;99708.63;9808130;29;96737;-90
2022/06/20 03:25:58;;;;;;;1.38;1.02;;;17.00;94.00;;;15.99;71.91;99718.28;9856122;29;96720;-87
2022/06/20 03:31:02;;;;;;;2.25;1.30;;;17.00;94.50;;;16.04;72.12;99718.47;9823741;29;97118;-87
2022/06/20 03:36:29;;;;;;;1.58;1.00;;;17.10;95.00;;;16.11;71.70;99703.16;9843938;29;96669;-88
2022/06/20 03:41:34;;;;;;;3.15;1.60;;;17.20;95.00;;;16.14;71.80;99708.09;9808425;29;96600;-88
2022/06/20 03:46:49;;;;;;;2.13;1.35;;;17.20;95.30;;;16.21;72.23;99708.88;9816195;29;96618;-85
2022/06/20 03:52:23;;;;;;;2.67;1.50;;;17.20;95.70;;;16.29;72.58;99711.28;9815357;29;97437;-85
2022/06/20 03:57:42;;;;;;;2.35;1.10;;;17.30;96.80;;;16.45;72.10;99693.03;9845417;29;96717;-85
2022/06/20 04:03:14;;;;;;;1.42;0.93;;;17.40;96.00;;;16.59;72.38;99703.41;9815111;29;97555;-85
2022/06/20 04:14:27;;;;;;;3.00;1.42;;;17.70;97.10;;;16.88;72.31;99711.06;9853236;29;96544;-83
2022/06/20 04:19:38;;;;;;;1.80;1.10;;;17.80;97.10;;;17.06;71.81;99700.34;9858511;29;96571;-86
2022/06/20 04:25:03;;;;;;;1.85;1.33;;;18.00;96.70;;;17.28;71.82;99709.63;9819691;29;96785;-85
2022/06/20 04:30:35;;;;;;;5.13;1.67;;;18.20;96.90;;;17.52;71.58;99713.28;9856105;29;96651;-86
2022/06/20 04:36:06;;;;;;;1.58;1.20;;;18.40;96.80;;;17.77;70.79;99699.75;9838322;29;96867;-85
2022/06/20 04:41:17;;;;;;;2.30;1.02;;;18.70;96.30;;;18.05;70.45;99711.78;9846591;29;96657;-85
2022/06/20 04:46:33;;;;;;;2.60;1.60;;;18.90;96.00;;;18.30;70.00;99701.72;9831650;29;97319;-85
2022/06/20 04:51:40;;;;;;;2.53;1.20;;;19.20;95.60;;;18.59;69.30;99696.47;9837585;29;96680;-85
2022/06/20 04:56:44;;;;;;;1.88;1.25;;;19.50;95.30;;;18.82;68.51;99709.97;9864465;29;96583;-85
2022/06/20 05:01:49;;;;;;;2.10;1.27;;;19.70;94.80;;;19.02;67.78;99701.56;9837369;29;96667;-83
2022/06/20 05:06:55;;;;;;;2.17;1.20;;;19.90;94.40;;;19.25;67.29;99703.41;9861683;29;97175;-84
2022/06/20 05:12:12;;;;;;;1.80;1.40;;;20.10;94.10;;;19.41;65.87;99709.94;9828512;29;96893;-84
2022/06/20 05:17:29;;;;;;;6.30;1.45;;;20.30;93.30;;;19.57;65.13;99700.31;9847410;29;96570;-84
2022/06/20 05:22:41;;;;;;;2.03;1.20;;;20.50;92.80;;;19.74;63.46;99699.34;9836490;29;96561;-83
2022/06/20 05:28:00;;;;;;;2.00;1.25;;;20.60;92.20;;;19.96;62.90;99701.34;9835877;29;96556;-83
2022/06/20 05:33:17;;;;;;;2.10;1.27;;;20.90;91.70;;;20.21;61.84;99715.34;9843724;29;96557;-82
2022/06/20 05:38:58;;;;;;;2.63;1.33;;;21.10;91.20;;;20.43;61.16;99714.59;9849923;29;96741;-83
2022/06/20 05:44:04;;;;;;;;;;;21.30;90.80;;;20.63;61.13;99714.16;9863018;29;96930;-83
2022/06/20 05:49:33;;;;;;;2.75;1.65;;;21.60;90.50;;;20.71;62.08;99716.47;9811384;29;96691;-83
2022/06/20 05:54:54;;;;;;;3.42;1.67;;;21.60;90.40;;;20.87;61.77;99723.75;9826360;29;96482;-84
2022/06/20 06:00:12;;;;;;;2.50;1.52;;;21.80;90.30;;;21.03;60.36;99711.25;9854241;29;96541;-83
2022/06/20 06:05:31;;;;;;;2.03;1.13;;;22.00;89.50;;;21.19;58.82;99713.13;9838685;29;96817;-83
2022/06/20 06:10:52;;;;;;;2.42;1.23;;;22.10;88.10;;;21.39;57.57;99699.09;9842633;29;96576;-84
2022/06/20 06:21:36;;;;;;;1.70;1.33;;;22.50;86.20;;;21.86;57.28;99693.97;9848401;29;98328;-84
2022/06/20 06:26:41;;;;;;;2.83;1.52;;;22.80;85.50;;;22.05;56.98;99705.25;9846966;29;97491;-83
2022/06/20 06:31:47;;;;;;;2.35;1.35;;;22.90;84.70;;;22.26;56.83;99689.25;9845857;29;97657;-83
2022/06/20 06:37:04;;;;;;;4.18;1.20;;;23.10;84.60;;;22.47;56.30;99684.81;9797360;29;96498;-83
2022/06/20 06:42:14;;;;;;;2.13;1.20;;;23.30;83.90;;;22.70;54.32;99679.88;9848463;29;96601;-83
2022/06/20 06:47:38;;;;;;;1.60;1.05;;;23.50;81.90;;;22.95;53.67;99679.25;9837773;29;96915;-83
2022/06/20 06:52:51;;;;;;;2.25;1.38;;;23.80;81.20;;;23.18;53.37;99680.75;9830677;29;96622;-84
2022/06/20 06:58:07;;;;;;;2.95;1.40;;;24.10;80.30;;;23.39;52.59;99672.69;9830770;29;96778;-83
2022/06/20 07:03:50;;;;;;;3.25;1.40;;;24.30;78.80;;;23.59;51.67;99663.84;9859129;29;96869;-85
2022/06/20 07:09:31;;;;;;;3.28;1.33;;;24.50;77.70;;;23.83;51.97;99642.50;9845654;29;96599;-84
2022/06/20 07:14:41;;;;;;;2.72;1.65;;;24.70;77.60;;;24.03;51.12;99624.34;9800518;29;96636;-84
2022/06/20 07:19:48;;;;;;;1.80;1.23;;;24.90;76.60;;;24.27;51.78;99627.31;9837667;29;96828;-84
2022/06/20 07:24:53;;;;;;;2.00;1.05;;;25.10;76.70;;;24.46;50.54;99615.94;9845563;29;96612;-84
2022/06/20 07:30:17;;;;;;;5.32;1.90;;;25.40;75.70;;;24.65;50.31;99611.59;9841219;29;96570;-84
2022/06/20 07:35:40;;;;;;;3.53;1.20;;;25.60;75.00;;;24.85;49.88;99618.88;9834500;29;96663;-85
2022/06/20 07:40:47;;;;;;;2.72;1.52;;;25.70;74.10;;;25.06;49.25;99597.88;9854757;29;96737;-84
2022/06/20 07:45:53;;;;;;;2.45;1.40;;;25.90;73.50;;;25.27;48.04;99601.34;9850832;29;96656;-85
2022/06/20 07:51:27;;;;;;;3.53;1.52;;;26.20;72.60;;;25.50;47.67;99597.16;9819073;29;96535;-85
2022/06/20 07:56:41;;;;;;;1.88;1.20;;;26.30;71.70;;;25.74;47.24;99594.59;9837388;29;96701;-84
2022/06/20 08:02:03;;;;;;;2.13;1.40;;;26.60;71.10;;;25.94;46.80;99586.28;9846271;29;98050;-84
2022/06/20 08:07:16;;;;;;;2.20;1.50;;;26.80;70.70;;;26.11;45.17;99589.41;9858318;29;96842;-85
2022/06/20 08:12:50;;;;;;;3.25;1.70;;;27.00;68.80;;;26.31;45.25;99574.78;9818757;29;97642;-85
2022/06/20 08:17:53;;;;;;;2.90;1.70;;;27.20;68.10;;;26.52;44.78;99571.91;9872615;29;96536;-85
2022/06/20 08:23:18;;;;;;;2.85;1.90;;;27.40;67.70;;;26.76;45.01;99561.81;9854602;29;96706;-84
2022/06/20 08:28:31;;;;;;;2.00;1.50;;;27.60;67.60;;;27.00;44.28;99550.09;9839762;29;96748;-85
2022/06/20 08:33:43;;;;;;;2.78;1.67;;;27.80;66.90;;;27.29;43.88;99558.19;9842048;29;96514;-85
2022/06/20 08:39:10;;;;;;;4.00;1.75;;;28.10;66.40;;;27.57;42.78;99570.06;9833848;29;96691;-85
2022/06/20 08:44:44;;;;;;;3.45;1.70;;;28.30;65.00;;;27.81;42.01;99554.44;9828693;29;96559;-85
2022/06/20 08:49:47;;;;;;;3.13;1.42;;;28.60;63.90;;;28.03;41.65;99550.28;9824684;29;98011;-85
2022/06/20 08:55:01;;;;;;;3.20;2.00;;;28.80;63.40;;;28.22;40.74;99542.84;9828308;29;96465;-84
2022/06/20 09:00:45;;;;;;;3.58;1.63;;;29.00;62.50;;;28.44;40.19;99537.53;9814549;29;97564;-85
2022/06/20 09:05:48;;;;;;;2.65;1.80;;;29.20;61.60;;;28.65;39.27;99526.19;9858514;29;96723;-85
2022/06/20 09:11:03;;;;;;;2.60;1.77;;;29.50;60.80;;;28.87;39.61;99520.03;9849094;29;96575;-83
2022/06/20 09:16:31;;;;;;;3.67;1.52;;;29.70;60.40;;;29.06;39.17;99516.06;9862819;29;96581;-85
2022/06/20 09:21:48;;;;;;;2.17;1.50;;;29.90;59.70;;;29.33;38.40;99509.75;9803859;29;96675;-85
2022/06/20 09:27:08;;;;;;;3.15;1.83;;;30.20;59.40;;;29.52;37.62;99493.16;9852982;29;96500;-86
2022/06/20 09:32:48;;;;;;;1.80;1.48;;;30.30;58.30;;;29.74;36.49;99473.19;9812580;29;96506;-85
2022/06/20 09:38:34;;;;;;;2.20;1.48;;;30.60;57.40;;;29.88;37.62;99473.13;9855246;29;96806;-85
2022/06/20 09:44:45;;;;;;;1.75;1.55;;;30.70;57.50;;;29.97;36.53;99465.75;9836200;29;96478;-84
2022/06/20 09:50:15;;;;;;;3.35;2.38;;;30.90;56.10;;;30.05;37.44;99462.25;9809574;29;96687;-85
2022/06/20 09:55:37;;;;;;;;;;;30.90;56.60;;;30.21;37.04;99442.69;9848640;29;97072;-85
2022/06/20 10:01:19;;;;;;;3.08;2.03;;;31.10;56.70;;;30.34;36.41;99463.69;9854961;29;96654;-85
2022/06/20 10:06:54;;;;;;;4.57;2.40;;;31.20;55.90;;;30.40;37.41;99451.44;9849226;29;96510;-85
2022/06/20 10:12:22;;;;;;;2.38;1.80;;;31.30;56.40;;;30.49;37.20;99435.84;9858210;29;97520;-86
2022/06/20 10:18:21;;;;;;;2.88;2.22;;;31.40;56.30;;;30.69;37.00;99430.91;9828275;29;96883;-85
2022/06/20 10:24:02;;;;;;;4.72;2.38;;;31.50;56.20;;;30.88;36.09;99431.41;9796381;29;96572;-84
2022/06/20 10:29:28;;;;;;;2.90;2.22;;;31.80;55.30;;;30.94;36.24;99427.38;9800715;29;96643;-85
2022/06/20 10:34:49;;;;;;;5.80;2.13;;;31.90;55.50;;;31.06;35.96;99430.31;9831747;29;96557;-85
2022/06/20 10:40:04;;;;;;;2.17;1.80;;;32.00;55.20;;;31.12;35.79;99419.97;9822240;29;98372;-85
2022/06/20 10:45:44;;;;;;;2.95;2.00;;;32.10;55.00;;;31.26;36.00;99422.59;9822598;29;97527;-86
2022/06/20 10:51:21;;;;;;;2.90;1.80;;;32.20;55.00;;;31.40;35.58;99423.22;9803208;29;96748;-87
2022/06/20 10:56:55;;;;;;;2.78;1.90;;;32.30;54.70;;;31.51;34.24;99397.03;9824895;29;97723;-87
2022/06/20 11:02:23;;;;;;;2.60;1.70;;;32.50;53.30;;;31.66;34.82;99393.75;9809129;29;97013;-86
2022/06/20 11:08:23;;;;;;;2.70;1.83;;;32.60;53.90;;;31.86;33.52;99384.06;9786687;29;96539;-85
2022/06/20 11:13:43;;;;;;;2.42;2.00;;;32.70;53.00;;;32.03;34.15;99393.34;9724113;29;96638;-86
2022/06/20 11:19:16;;;;;;;3.47;2.05;;;32.90;53.20;;;32.17;32.81;99374.69;9815648;29;96493;-85
2022/06/20 11:24:42;;;;;;;3.28;1.83;;;33.10;52.30;;;32.23;34.27;99373.38;9787534;29;98026;-87
2022/06/20 11:29:59;;;;;;;2.63;1.73;;;33.20;52.40;;;32.39;32.60;99390.13;9810945;29;96647;-86
2022/06/20 11:35:34;;;;;;;3.08;1.90;;;33.30;52.00;;;32.49;33.53;99389.72;9814217;29;97050;-88
2022/06/20 11:40:37;;;;;;;3.90;1.92;;;33.40;51.50;;;32.62;32.38;99377.66;9813833;29;96566;-87
2022/06/20 11:46:42;;;;;;;2.08;1.63;;;33.50;51.40;;;32.81;31.85;99379.16;9822562;29;96581;-87
2022/06/20 11:52:21;;;;;;;3.72;1.50;;;33.70;50.80;;;32.98;30.58;99381.78;9792051;29;96645;-86
2022/06/20 11:57:49;;;;;;;2.53;1.58;;;33.90;48.40;;;32.90;28.90;99382.69;9811039;29;96603;-87
2022/06/20 12:03:19;;;;;;;2.33;1.73;;;33.90;48.20;;;33.14;30.84;99352.50;9788211;29;96510;-87
2022/06/20 12:08:47;;;;;;;1.88;1.20;;;34.00;49.00;;;33.43;29.25;99359.06;9825484;29;96408;-87
2022/06/20 12:14:46;;;;;;;2.08;1.20;;;34.30;47.90;;;33.69;27.84;99367.81;9808628;29;97472;-86
2022/06/20 12:25:43;;;;;;;3.13;1.87;;;34.80;46.80;;;33.99;28.71;99329.88;9824558;29;96502;-86
2022/06/20 12:30:57;;;;;;;2.53;1.67;;;35.00;46.90;;;34.24;27.63;99325.13;9790369;29;96688;-86
2022/06/20 12:36:15;;;;;;;2.63;0.98;;;35.20;46.50;;;34.26;25.83;99338.59;9827876;29;96466;-86
2022/06/20 12:41:23;;;;;;;2.20;1.60;;;35.30;45.10;;;34.26;24.99;99336.63;9790742;29;96703;-87
2022/06/20 12:47:03;;;;;;;1.87;1.20;;;35.30;43.90;;;34.13;24.36;99332.28;9813046;29;96566;-87
2022/06/20 12:52:18;;;;;;;1.10;1.00;;;35.10;43.10;;;34.39;25.01;99318.13;9817947;29;96674;-87
2022/06/20 12:57:59;;;;;;;2.20;1.23;;;35.20;43.70;;;34.58;25.03;99326.59;9825459;29;98949;-86
2022/06/20 13:03:27;;;;;;;2.00;1.25;;;35.40;43.30;;;34.59;24.49;99321.88;9828119;29;96591;-87
2022/06/20 13:09:50;;;;;;;1.70;1.05;;;35.50;42.90;;;34.61;24.35;99311.31;9826584;29;97934;-86
2022/06/20 13:15:27;;;;;;;1.98;1.00;;;35.50;42.80;;;34.55;24.26;99315.47;9824233;29;97758;-87
2022/06/20 13:21:17;;;;;;;1.45;1.10;;;35.40;41.00;;;34.64;24.36;99302.31;9813993;29;96833;-92
2022/06/20 13:27:00;;;;;;;1.83;1.30;;;35.50;42.40;;;34.76;24.46;99310.56;9826291;29;96755;-90
2022/06/20 13:32:39;;;;;;;2.28;1.13;;;35.50;42.60;;;34.88;24.15;99295.91;9814756;29;97226;-96
2022/06/20 13:38:14;;;;;;;1.58;1.00;;;35.60;42.20;;;34.99;23.44;99299.00;9810977;29;97228;-90
2022/06/20 13:43:38;;;;;;;1.77;1.10;;;35.80;41.20;;;35.11;23.92;99291.44;9831810;29;97202;-90
2022/06/20 13:48:46;;;;;;;3.55;1.40;;;35.80;42.10;;;35.16;24.40;99278.56;9836665;29;96634;-94
2022/06/20 13:54:44;;;;;;;1.60;1.15;;;35.80;42.30;;;35.26;24.42;99283.53;9818333;29;96686;-91
2022/06/20 13:59:57;;;;;;;2.25;1.15;;;35.90;42.00;;;35.39;23.11;99277.59;9851938;29;96821;-96
2022/06/20 14:05:20;;;;;;;2.17;1.20;;;36.10;42.40;;;35.54;23.46;99272.44;9856678;29;96684;-95
2022/06/20 14:10:43;;;;;;;1.10;1.00;;;36.30;41.70;;;35.57;23.31;99267.00;9836121;29;96636;-89
2022/06/20 14:15:46;;;;;;;3.42;1.20;;;36.30;41.30;;;35.69;22.98;99260.59;9840309;29;97609;-96
2022/06/20 14:21:04;;;;;;;3.45;1.10;;;36.40;41.50;;;35.45;22.91;99258.81;9828866;29;97387;-96
2022/06/20 14:26:26;;;;;;;2.53;1.20;;;36.30;40.70;;;35.24;23.44;99263.75;9843600;29;98280;-89
2022/06/20 14:31:52;;;;;;;1.50;1.10;;;36.10;40.90;;;34.93;23.92;99259.81;9808402;29;99038;-88
2022/06/20 14:37:15;;;;;;;1.98;1.25;;;35.70;41.10;;;34.63;24.19;99255.78;9826139;29;96767;-89
2022/06/20 14:42:43;;;;;;;1.35;1.00;;;35.40;41.40;;;34.48;24.12;99254.56;9827941;29;96469;-89
2022/06/20 14:48:16;;;;;;;1.53;1.00;;;35.20;41.70;;;34.26;24.28;99247.59;9827884;29;98488;-90
2022/06/20 14:53:53;;;;;;;2.58;1.00;;;35.10;41.70;;;33.85;24.90;99246.72;9816015;29;98400;-90
2022/06/20 14:59:12;;;;;;;1.40;1.15;;;34.80;42.00;;;33.31;25.01;99237.84;9835323;29;96588;-88
2022/06/20 15:04:28;;;;;;;2.08;1.42;;;34.30;42.00;;;33.00;26.70;99230.91;9836438;29;96692;-91
2022/06/20 15:10:08;;;;;;;2.42;1.30;;;33.90;43.10;;;32.70;26.80;99233.78;9846752;29;96838;-89
2022/06/20 15:15:23;;;;;;;1.55;1.38;;;33.60;43.30;;;32.65;27.55;99227.69;9842517;29;96687;-90
2022/06/20 15:20:55;;;;;;;2.40;1.20;;;33.50;44.10;;;32.66;28.55;99234.78;9816124;29;96674;-93
2022/06/20 15:26:22;;;;;;;1.75;1.30;;;33.40;44.70;;;32.76;28.31;99220.63;9791181;29;96637;-90
2022/06/20 15:31:31;;;;;;;1.83;1.27;;;33.40;45.00;;;32.86;28.39;99224.88;9848465;29;96974;-90
2022/06/20 15:36:41;;;;;;;2.72;1.42;;;33.50;45.20;;;33.05;28.67;99216.13;9807870;29;96758;-92
2022/06/20 15:47:34;;;;;;;1.25;1.13;;;33.80;45.70;;;33.57;28.62;99216.31;9847498;29;98601;-91
2022/06/20 15:52:57;;;;;;;2.13;1.50;;;34.10;45.80;;;33.76;29.10;99207.44;9860847;29;96542;-90
2022/06/20 15:58:54;;;;;;;1.45;1.08;;;34.30;45.90;;;33.81;28.49;99205.25;9847655;29;96961;-91
2022/06/20 16:04:24;;;;;;;1.92;1.52;;;34.40;45.60;;;33.75;29.29;99203.09;9829720;29;98554;-92
2022/06/20 16:10:05;;;;;;;1.95;1.38;;;34.40;46.20;;;33.69;28.91;99199.78;9848041;29;96815;-95
2022/06/20 16:15:21;;;;;;;2.47;1.52;;;34.30;46.20;;;33.57;28.65;99194.28;9837271;29;98940;-95
2022/06/20 16:20:38;;;;;;;2.22;1.40;;;34.30;46.20;;;33.57;30.30;99197.03;9824841;29;97461;-93
2022/06/20 16:25:41;;;;;;;2.97;1.40;;;34.10;47.30;;;33.46;29.52;99187.63;9836136;29;97236;-94
2022/06/20 16:31:06;;;;;;;1.88;1.27;;;34.10;46.80;;;33.40;30.14;99189.81;9812673;29;96752;-92
2022/06/20 16:36:33;;;;;;;1.55;1.33;;;34.10;47.00;;;33.40;29.71;99189.00;9860572;29;96655;-92
2022/06/20 16:41:55;;;;;;;1.88;1.45;;;34.10;47.20;;;33.28;30.00;99192.53;9835533;29;96437;-92
2022/06/20 16:47:12;;;;;;;2.25;1.30;;;34.00;47.20;;;33.15;29.92;99196.41;9859395;29;96647;-95
2022/06/20 16:52:38;;;;;;;2.13;1.30;;;33.90;47.10;;;33.08;30.27;99191.47;9866720;29;96647;-95
2022/06/20 16:57:49;;;;;;;1.63;1.20;;;33.90;47.40;;;33.02;30.31;99179.09;9832899;29;96976;-92
2022/06/20 17:03:16;;;;;;;2.38;1.30;;;33.80;47.30;;;32.88;30.28;99173.91;9836028;29;96573;-91
2022/06/20 17:08:58;;;;;;;2.17;1.35;;;33.60;47.20;;;32.78;31.08;99170.75;9836770;29;96480;-91
2022/06/20 17:14:17;;;;;;;3.30;1.33;;;33.60;47.60;;;32.61;30.95;99164.28;9852229;29;96668;-92
2022/06/20 17:19:37;;;;;;;2.17;1.20;;;33.40;47.40;;;32.52;31.35;99176.53;9852696;29;96713;-92
2022/06/20 17:24:58;;;;;;;2.15;1.35;;;33.30;47.80;;;32.41;31.70;99170.66;9828134;29;97883;-91
2022/06/20 17:30:32;;;;;;;1.70;1.40;;;33.30;48.00;;;32.28;32.24;99168.97;9827981;29;97565;-92
2022/06/20 17:36:04;;;;;;;1.50;1.20;;;33.20;48.50;;;31.94;32.00;99176.34;9847104;29;97626;-92
2022/06/20 17:41:35;;;;;;;2.42;1.90;;;32.90;48.30;;;31.62;32.48;99178.63;9825692;29;96444;-92
2022/06/20 17:47:23;;;;;;;2.17;1.40;;;32.70;48.40;;;31.37;33.22;99182.31;9804102;29;96798;-91
2022/06/20 17:52:54;;;;;;;4.78;1.50;;;32.40;48.70;;;31.01;33.55;99186.31;9791070;29;96548;-90
2022/06/20 17:58:12;;;;;;;2.05;1.35;;;32.10;49.10;;;30.74;34.74;99181.22;9814274;29;98391;-92
2022/06/20 18:03:46;;;;;;;1.95;1.27;;;31.80;49.60;;;30.42;34.78;99186.09;9818359;29;96599;-91
2022/06/20 18:09:21;;;;;;;2.13;1.23;;;31.40;50.00;;;30.12;35.04;99185.13;9825873;29;96588;-91
2022/06/20 18:14:58;;;;;;;3.20;1.70;;;31.10;50.30;;;29.88;36.16;99182.81;9825098;29;97224;-90
2022/06/20 18:20:14;;;;;;;2.65;1.70;;;30.90;51.80;;;29.70;36.57;99175.72;9813648;29;96476;-92
2022/06/20 18:25:30;;;;;;;2.10;1.60;;;30.70;51.30;;;29.48;36.99;99182.84;9810976;29;96393;-91
2022/06/20 18:30:47;;;;;;;2.83;1.50;;;30.50;51.60;;;29.23;37.63;99189.06;9794689;29;96827;-92
2022/06/20 18:35:51;;;;;;;1.33;1.23;;;30.30;52.00;;;28.96;38.58;99201.78;9810806;29;96605;-91
2022/06/20 18:41:06;;;;;;;1.85;1.48;;;30.00;52.90;;;28.62;39.35;99207.03;9819460;29;97559;-93
2022/06/20 18:46:14;;;;;;;3.53;2.00;;;29.60;54.50;;;28.24;40.23;99216.34;9804361;29;96773;-90
2022/06/20 18:51:36;;;;;;;2.92;1.83;;;29.20;55.00;;;27.93;41.20;99207.22;9787610;29;96616;-93
2022/06/20 18:57:17;;;;;;;3.47;1.92;;;28.80;55.70;;;27.66;42.48;99210.78;9822109;29;98021;-90
2022/06/20 19:02:26;;;;;;;3.00;1.65;;;28.60;56.50;;;27.45;43.08;99224.00;9810381;29;96577;-91
2022/06/20 19:08:06;;;;;;;2.33;1.73;;;28.30;57.30;;;27.27;43.48;99236.63;9824933;29;96455;-89
2022/06/20 19:13:27;;;;;;;3.90;1.98;;;28.10;58.40;;;27.12;44.13;99229.53;9821980;29;96512;-90
2022/06/20 19:19:11;;;;;;;3.50;1.90;;;28.00;58.50;;;27.01;43.91;99243.63;9786397;29;97089;-88
2022/06/20 19:24:27;;;;;;;2.28;1.73;;;27.80;58.90;;;26.95;44.41;99230.09;9805504;29;96558;-91
2022/06/20 19:30:00;;;;;;;2.40;1.80;;;27.70;58.50;;;26.97;44.32;99234.41;9796894;29;96404;-91
2022/06/20 19:35:11;;;;;;;2.65;1.70;;;27.70;58.80;;;26.93;44.77;99237.75;9819096;29;97079;-93
2022/06/20 19:40:30;;;;;;;4.00;1.80;;;27.70;59.00;;;26.89;45.00;99230.47;9804937;29;97367;-91
2022/06/20 19:45:51;;;;;;;3.70;1.55;;;27.70;59.40;;;26.83;45.56;99237.94;9819787;29;98169;-93
2022/06/20 19:50:54;;;;;;;3.28;1.95;;;27.60;59.60;;;26.76;46.06;99239.41;9785522;29;96582;-91
2022/06/20 19:56:01;;;;;;;2.67;1.83;;;27.50;59.70;;;26.64;46.77;99234.44;9770584;29;96966;-90
2022/06/20 20:01:07;;;;;;;3.10;2.15;;;27.50;60.60;;;26.51;47.99;99237.88;9785599;29;96659;-92
2022/06/20 20:06:12;;;;;;;2.92;2.22;;;27.30;61.90;;;26.29;48.83;99233.84;9787244;29;96700;-91
2022/06/20 20:11:32;;;;;;;2.85;2.00;;;27.10;62.30;;;26.13;49.47;99243.31;9803659;29;96685;-91
2022/06/20 20:16:35;;;;;;;3.50;2.25;;;27.00;64.50;;;25.99;50.06;99243.25;9815219;29;96644;-91
2022/06/20 20:22:15;;;;;;;3.45;2.58;;;26.80;63.90;;;25.94;50.26;99254.19;9817072;29;98098;-90
2022/06/20 20:28:20;;;;;;;2.57;2.10;;;26.70;64.60;;;25.95;49.98;99252.28;9817372;29;97523;-91
2022/06/20 20:33:47;;;;;;;2.70;2.20;;;26.70;65.30;;;25.92;50.34;99250.97;9793054;29;98206;-91
2022/06/20 20:39:20;;;;;;;3.00;2.22;;;26.70;65.50;;;25.86;50.53;99239.34;9825154;29;97496;-92
2022/06/20 20:45:21;;;;;;;4.47;2.33;;;26.60;64.60;;;25.78;51.13;99242.69;9833492;29;96885;-92
2022/06/20 20:50:40;;;;;;;3.95;2.22;;;26.60;65.50;;;25.71;51.65;99239.47;9829086;29;98527;-91
2022/06/20 20:55:49;;;;;;;4.28;2.53;;;26.60;66.70;;;25.61;52.51;99242.34;9845057;29;96718;-91
2022/06/20 21:01:03;;;;;;;3.05;2.58;;;26.50;66.10;;;25.54;52.91;99233.69;9828625;29;96806;-91
2022/06/20 21:06:15;;;;;;;4.60;2.83;;;26.40;67.00;;;25.55;53.52;99227.16;9828717;29;96688;-91
2022/06/20 21:11:30;;;;;;;3.85;2.75;;;26.40;67.90;;;25.46;54.10;99239.78;9837268;29;97378;-91
2022/06/20 21:16:40;;;;;;;4.03;2.40;;;26.30;67.90;;;25.43;54.68;99240.34;9815249;29;98254;-86
2022/06/20 21:21:48;;;;;;;4.82;2.95;;;26.20;69.60;;;25.54;55.10;99239.94;9827966;29;97223;-86
2022/06/20 21:26:55;;;;;;;3.00;2.63;;;26.30;70.40;;;25.68;55.00;99250.16;9834391;29;96595;-86
2022/06/20 21:32:09;;;;;;;3.83;2.60;;;26.30;71.00;;;25.84;55.09;99251.59;9826325;29;98546;-88
2022/06/20 21:37:23;;;;;;;3.72;2.58;;;26.40;71.70;;;26.08;54.68;99262.44;9829399;29;96925;-88
2022/06/20 21:42:43;;;;;;;8.13;2.85;;;26.60;71.40;;;26.29;53.98;99271.97;9819784;29;99622;-86
2022/06/20 21:48:05;;;;;;;4.68;3.00;;;26.80;70.80;;;26.42;53.96;99300.41;9838913;29;96754;-87
2022/06/20 21:53:27;;;;;;;3.40;2.88;;;27.00;70.70;;;26.36;54.21;99332.31;9846020;29;96469;-84
2022/06/20 21:58:35;;;;;;;5.47;3.15;;;27.00;70.40;;;26.25;54.41;99347.16;9828192;29;97652;-94
2022/06/20 22:03:41;;;;;;;5.57;2.92;;;26.90;71.00;;;26.10;55.15;99336.50;9861843;29;96996;-91
2022/06/20 22:08:47;;;;;;;4.40;2.42;;;26.70;71.80;;;25.93;55.87;99355.19;9833329;29;98009;-89
2022/06/20 22:14:01;;;;;;;5.78;2.28;;;26.60;73.30;;;25.80;56.52;99343.91;9828468;29;96988;-91
2022/06/20 22:19:13;;;;;;;2.85;2.28;;;26.40;73.60;;;25.65;56.30;99337.78;9808978;29;97928;-85
2022/06/20 22:24:22;;;;;;;4.53;2.10;;;26.20;73.50;;;25.48;56.43;99333.56;9858470;29;96905;-88
2022/06/20 22:30:07;;;;;;;3.50;2.08;;;26.10;73.60;;;25.24;58.33;99298.19;9826976;29;96660;-92
2022/06/20 22:35:13;;;;;;;3.35;1.98;;;25.90;76.20;;;24.93;60.01;99261.47;9801685;29;97664;-92
2022/06/20 22:40:23;;;;;;;3.20;1.98;;;25.60;78.40;;;24.69;60.75;99245.91;9815807;29;97015;-93
2022/06/20 22:45:44;;;;;;;2.60;1.63;;;25.40;79.40;;;24.47;61.19;99299.81;9792243;29;96810;-93
2022/06/20 22:51:04;;;;;;;2.40;1.77;;;25.20;79.70;;;24.32;59.96;99346.06;9818626;29;96817;-89
2022/06/20 22:56:29;;;;;;;3.40;1.70;;;25.00;78.20;;;24.14;61.86;99382.78;9809812;29;97474;-90